createdAt,value
2018-08-04T00:01:03.187Z,101280.28
2018-08-04T00:03:31.842Z,101277.18
2018-08-04T00:06:00.346Z,101273.77
2018-08-04T00:08:33.469Z,101268.50
2018-08-04T00:11:02.103Z,101273.02
2018-08-04T00:13:31.262Z,101263.67
2018-08-04T00:15:59.900Z,101268.48
2018-08-04T00:18:28.521Z,101276.02
2018-08-04T00:20:59.358Z,101268.24
2018-08-04T00:23:27.819Z,101267.00
2018-08-04T00:25:56.578Z,101269.53
2018-08-04T00:28:25.763Z,101270.87
2018-08-04T00:30:54.286Z,101275.22
2018-08-04T00:33:24.476Z,101278.39
2018-08-04T00:35:53.837Z,101284.70
2018-08-04T00:38:22.886Z,101278.79
2018-08-04T00:40:51.444Z,101282.69
2018-08-04T00:43:21.057Z,101276.88
2018-08-04T00:45:50.213Z,101272.70
2018-08-04T00:48:18.834Z,101272.30
2018-08-04T00:50:48.307Z,101275.85
2018-08-04T00:53:16.843Z,101275.80
2018-08-04T00:55:45.919Z,101274.03
2018-08-04T00:58:14.349Z,101272.72
2018-08-04T01:00:42.866Z,101274.95
2018-08-04T01:03:12.043Z,101279.01
2018-08-04T01:05:40.651Z,101278.03
2018-08-04T01:08:09.908Z,101271.23
2018-08-04T01:10:40.243Z,101269.91
2018-08-04T01:13:09.905Z,101266.50
2018-08-04T01:15:39.193Z,101280.81
2018-08-04T01:18:07.729Z,101275.65
2018-08-04T01:20:37.168Z,101271.45
2018-08-04T01:23:06.581Z,101268.59
2018-08-04T01:25:36.319Z,101272.93
2018-08-04T01:28:05.085Z,101272.00
2018-08-04T01:30:34.508Z,101275.88
2018-08-04T01:33:03.245Z,101272.30
2018-08-04T01:35:32.693Z,101276.26
2018-08-04T01:38:01.402Z,101272.02
2018-08-04T01:40:30.863Z,101263.11
2018-08-04T01:42:59.385Z,101256.70
2018-08-04T01:45:27.948Z,101250.83
2018-08-04T01:47:56.546Z,101258.65
2018-08-04T01:50:27.807Z,101253.00
2018-08-04T01:52:57.730Z,101256.63
2018-08-04T01:55:27.309Z,101269.49
2018-08-04T01:57:56.573Z,101263.36
2018-08-04T02:00:27.572Z,101251.09
2018-08-04T02:02:56.040Z,101258.17
2018-08-04T02:05:24.569Z,101265.84
2018-08-04T02:07:53.188Z,101260.95
2018-08-04T02:10:21.773Z,101267.27
2018-08-04T02:12:51.321Z,101264.45
2018-08-04T02:15:20.007Z,101258.45
2018-08-04T02:17:51.484Z,101259.16
2018-08-04T02:20:21.028Z,101255.27
2018-08-04T02:22:50.392Z,101255.99
2018-08-04T02:25:19.843Z,101263.00
2018-08-04T02:27:49.093Z,101253.98
2018-08-04T02:30:17.673Z,101255.19
2018-08-04T02:32:46.530Z,101260.34
2018-08-04T02:35:15.859Z,101257.11
2018-08-04T02:37:44.517Z,101250.05
2018-08-04T02:40:14.004Z,101252.06
2018-08-04T02:42:43.371Z,101251.81
2018-08-04T02:45:13.593Z,101257.52
2018-08-04T02:47:42.362Z,101253.32
2018-08-04T02:50:10.850Z,101254.32
2018-08-04T02:52:39.281Z,101260.10
2018-08-04T02:55:08.099Z,101265.23
2018-08-04T02:57:37.157Z,101259.22
2018-08-04T03:00:07.293Z,101252.91
2018-08-04T03:02:35.817Z,101247.42
2018-08-04T03:05:05.014Z,101249.84
2018-08-04T03:07:34.160Z,101242.38
2018-08-04T03:10:05.366Z,101249.95
2018-08-04T03:12:34.964Z,101249.98
2018-08-04T03:15:03.551Z,101247.27
2018-08-04T03:17:34.207Z,101249.69
2018-08-04T03:20:02.759Z,101249.89
2018-08-04T03:22:32.033Z,101249.42
2018-08-04T03:25:00.636Z,101246.82
2018-08-04T03:27:29.281Z,101244.88
2018-08-04T03:29:57.933Z,101248.45
2018-08-04T03:32:26.713Z,101250.12
2018-08-04T03:34:55.237Z,101243.34
2018-08-04T03:37:24.306Z,101240.69
2018-08-04T03:39:53.629Z,101241.66
2018-08-04T03:42:23.184Z,101245.30
2018-08-04T03:44:51.790Z,101259.31
2018-08-04T03:47:20.598Z,101265.61
2018-08-04T03:49:53.645Z,101273.66
2018-08-04T03:52:22.101Z,101276.19
2018-08-04T03:54:50.589Z,101281.75
2018-08-04T03:57:24.387Z,101278.41
2018-08-04T03:59:53.522Z,101274.20
2018-08-04T04:02:22.321Z,101273.98
2018-08-04T04:04:51.029Z,101268.97
2018-08-04T04:07:20.706Z,101270.46
2018-08-04T04:09:50.430Z,101267.39
2018-08-04T04:12:20.131Z,101270.41
2018-08-04T04:14:48.675Z,101269.15
2018-08-04T04:17:18.959Z,101265.81
2018-08-04T04:19:47.787Z,101264.05
2018-08-04T04:22:16.307Z,101249.89
2018-08-04T04:24:46.351Z,101252.74
2018-08-04T04:27:15.805Z,101252.36
2018-08-04T04:29:44.954Z,101259.17
2018-08-04T04:32:13.360Z,101253.05
2018-08-04T04:34:43.553Z,101266.61
2018-08-04T04:37:12.087Z,101266.72
2018-08-04T04:39:42.761Z,101259.16
2018-08-04T04:42:12.348Z,101257.45
2018-08-04T04:44:41.089Z,101258.91
2018-08-04T04:47:09.644Z,101260.76
2018-08-04T04:49:41.855Z,101258.85
2018-08-04T04:52:10.913Z,101271.53
2018-08-04T04:54:40.974Z,101274.71
2018-08-04T04:57:11.093Z,101274.20
2018-08-04T04:59:43.248Z,101271.72
2018-08-04T05:02:11.778Z,101265.62
2018-08-04T05:04:42.044Z,101266.94
2018-08-04T05:07:12.262Z,101269.55
2018-08-04T05:09:40.823Z,101273.56
2018-08-04T05:12:11.527Z,101277.73
2018-08-04T05:14:40.776Z,101282.38
2018-08-04T05:17:10.205Z,101282.06
2018-08-04T05:19:39.229Z,101283.55
2018-08-04T05:22:07.869Z,101284.95
2018-08-04T05:24:36.594Z,101274.35
2018-08-04T05:27:06.668Z,101277.74
2018-08-04T05:29:35.344Z,101281.02
2018-08-04T05:32:04.292Z,101285.69
2018-08-04T05:34:35.155Z,101282.47
2018-08-04T05:37:05.869Z,101272.70
2018-08-04T05:39:34.361Z,101274.04
2018-08-04T05:42:03.825Z,101267.63
2018-08-04T05:44:34.309Z,101273.08
2018-08-04T05:47:03.696Z,101278.09
2018-08-04T05:49:33.506Z,101280.20
2018-08-04T05:52:02.622Z,101282.36
2018-08-04T05:54:32.380Z,101281.25
2018-08-04T05:57:03.065Z,101290.03
2018-08-04T05:59:31.860Z,101291.31
2018-08-04T06:02:00.385Z,101301.23
2018-08-04T06:04:29.220Z,101308.38
2018-08-04T06:06:58.962Z,101311.72
2018-08-04T06:09:29.308Z,101305.96
2018-08-04T06:11:58.305Z,101307.53
2018-08-04T06:14:27.596Z,101300.87
2018-08-04T06:16:57.610Z,101304.45
2018-08-04T06:19:27.215Z,101302.88
2018-08-04T06:21:57.595Z,101298.44
2018-08-04T06:24:26.981Z,101302.03
2018-08-04T06:26:55.439Z,101302.23
2018-08-04T06:29:25.093Z,101297.44
2018-08-04T06:31:54.946Z,101300.44
2018-08-04T06:34:23.645Z,101303.45
2018-08-04T06:36:53.128Z,101294.76
2018-08-04T06:39:24.635Z,101290.16
2018-08-04T06:41:53.301Z,101293.38
2018-08-04T06:44:23.863Z,101298.17
2018-08-04T06:46:53.169Z,101302.52
2018-08-04T06:49:24.583Z,101305.55
2018-08-04T06:51:54.037Z,101299.19
2018-08-04T06:54:23.472Z,101288.33
2018-08-04T06:56:54.889Z,101283.17
2018-08-04T06:59:23.653Z,101292.61
2018-08-04T07:01:52.145Z,101294.63
2018-08-04T07:04:20.650Z,101296.45
2018-08-04T07:06:49.616Z,101290.20
2018-08-04T07:09:18.983Z,101296.55
2018-08-04T07:11:47.838Z,101299.27
2018-08-04T07:14:16.571Z,101301.50
2018-08-04T07:16:45.733Z,101300.18
2018-08-04T07:19:14.675Z,101300.64
2018-08-04T07:21:43.045Z,101300.09
2018-08-04T07:24:12.406Z,101298.41
2018-08-04T07:26:42.594Z,101306.80
2018-08-04T07:29:11.756Z,101297.65
2018-08-04T07:31:42.647Z,101306.26
2018-08-04T07:34:12.011Z,101299.05
2018-08-04T07:36:41.924Z,101298.43
2018-08-04T07:39:11.730Z,101300.84
2018-08-04T07:41:40.482Z,101306.23
2018-08-04T07:44:09.498Z,101312.74
2018-08-04T07:46:38.174Z,101307.64
2018-08-04T07:49:07.066Z,101305.09
2018-08-04T07:51:36.238Z,101300.50
2018-08-04T07:54:06.970Z,101299.13
2018-08-04T07:56:36.561Z,101299.42
2018-08-04T07:59:05.287Z,101297.87
2018-08-04T08:01:33.917Z,101302.73
2018-08-04T08:04:02.576Z,101304.16
2018-08-04T08:06:31.953Z,101304.91
2018-08-04T08:09:01.080Z,101311.78
2018-08-04T08:11:30.584Z,101307.30
2018-08-04T08:13:59.167Z,101309.88
2018-08-04T08:16:27.653Z,101297.02
2018-08-04T08:18:56.637Z,101308.44
2018-08-04T08:21:27.288Z,101313.52
2018-08-04T08:23:57.010Z,101310.27
2018-08-04T08:26:26.219Z,101301.03
2018-08-04T08:28:56.445Z,101298.30
2018-08-04T08:31:25.896Z,101296.55
2018-08-04T08:33:56.033Z,101300.48
2018-08-04T08:36:25.789Z,101295.30
2018-08-04T08:38:54.309Z,101303.89
2018-08-04T08:41:24.177Z,101303.91
2018-08-04T08:43:53.573Z,101305.42
2018-08-04T08:46:23.497Z,101300.73
2018-08-04T08:48:55.706Z,101304.31
2018-08-04T08:51:24.448Z,101305.93
2018-08-04T08:53:53.917Z,101304.27
2018-08-04T08:56:23.048Z,101304.45
2018-08-04T08:58:52.108Z,101305.59
2018-08-04T09:01:21.067Z,101312.92
2018-08-04T09:03:49.729Z,101304.16
2018-08-04T09:06:19.595Z,101305.36
2018-08-04T09:08:49.000Z,101305.45
2018-08-04T09:11:17.615Z,101302.43
2018-08-04T09:13:47.376Z,101300.38
2018-08-04T09:16:16.120Z,101304.25
2018-08-04T09:18:44.698Z,101303.86
2018-08-04T09:21:14.467Z,101304.60
2018-08-04T09:23:44.244Z,101305.27
2018-08-04T09:26:13.090Z,101300.17
2018-08-04T09:28:41.717Z,101302.34
2018-08-04T09:31:10.857Z,101297.72
2018-08-04T09:33:39.672Z,101297.63
2018-08-04T09:36:08.310Z,101289.61
2018-08-04T09:38:37.362Z,101292.88
2018-08-04T09:41:06.709Z,101294.69
2018-08-04T09:43:35.701Z,101289.65
2018-08-04T09:46:04.619Z,101289.16
2018-08-04T09:48:33.492Z,101289.12
2018-08-04T09:51:03.099Z,101288.72
2018-08-04T09:53:32.188Z,101287.78
2018-08-04T09:56:01.682Z,101292.56
2018-08-04T09:58:30.233Z,101285.41
2018-08-04T10:01:03.898Z,101281.31
2018-08-04T10:03:32.890Z,101281.70
2018-08-04T10:06:02.486Z,101281.70
2018-08-04T10:08:32.119Z,101274.29
2018-08-04T10:11:00.692Z,101281.63
2018-08-04T10:13:29.311Z,101271.30
2018-08-04T10:15:58.135Z,101276.53
2018-08-04T10:18:28.837Z,101279.11
2018-08-04T10:20:57.294Z,101276.58
2018-08-04T10:23:26.456Z,101284.05
2018-08-04T10:25:55.141Z,101278.55
2018-08-04T10:28:24.285Z,101281.75
2018-08-04T10:30:52.802Z,101282.77
2018-08-04T10:33:22.262Z,101278.56
2018-08-04T10:35:51.865Z,101276.03
2018-08-04T10:38:20.561Z,101265.61
2018-08-04T10:40:49.146Z,101273.42
2018-08-04T10:43:17.677Z,101269.77
2018-08-04T10:45:46.611Z,101268.41
2018-08-04T10:48:15.871Z,101262.05
2018-08-04T10:50:44.557Z,101270.24
2018-08-04T10:53:14.368Z,101261.27
2018-08-04T10:55:42.870Z,101256.60
2018-08-04T10:58:11.631Z,101259.63
2018-08-04T11:00:40.097Z,101258.96
2018-08-04T11:03:09.054Z,101252.31
2018-08-04T11:05:37.786Z,101258.67
2018-08-04T11:08:08.030Z,101261.41
2018-08-04T11:10:36.534Z,101257.31
2018-08-04T11:13:05.328Z,101259.94
2018-08-04T11:15:33.881Z,101251.69
2018-08-04T11:18:03.530Z,101254.26
2018-08-04T11:20:32.598Z,101249.63
2018-08-04T11:23:01.658Z,101244.86
2018-08-04T11:25:30.978Z,101239.41
2018-08-04T11:27:59.630Z,101247.66
2018-08-04T11:30:28.795Z,101253.58
2018-08-04T11:32:58.168Z,101249.02
2018-08-04T11:35:26.830Z,101247.46
2018-08-04T11:37:55.333Z,101242.25
2018-08-04T11:40:24.125Z,101240.48
2018-08-04T11:42:53.544Z,101239.77
2018-08-04T11:45:23.007Z,101233.57
2018-08-04T11:47:51.667Z,101235.00
2018-08-04T11:50:20.628Z,101235.55
2018-08-04T11:52:49.133Z,101228.50
2018-08-04T11:55:17.616Z,101234.67
2018-08-04T11:57:47.145Z,101229.02
2018-08-04T12:00:16.825Z,101225.52
2018-08-04T12:02:46.256Z,101233.37
2018-08-04T12:05:16.209Z,101224.66
2018-08-04T12:07:44.766Z,101224.78
2018-08-04T12:10:13.512Z,101226.98
2018-08-04T12:12:43.271Z,101212.28
2018-08-04T12:15:13.757Z,101215.63
2018-08-04T12:17:44.311Z,101221.53
2018-08-04T12:20:14.229Z,101218.05
2018-08-04T12:22:42.792Z,101220.95
2018-08-04T12:25:11.444Z,101224.45
2018-08-04T12:27:40.305Z,101222.39
2018-08-04T12:30:10.131Z,101212.72
2018-08-04T12:32:40.042Z,101207.36
2018-08-04T12:35:09.951Z,101214.92
2018-08-04T12:37:38.831Z,101208.39
2018-08-04T12:40:08.205Z,101199.20
2018-08-04T12:42:38.042Z,101209.23
2018-08-04T12:45:07.349Z,101197.09
2018-08-04T12:47:36.670Z,101207.95
2018-08-04T12:50:05.577Z,101206.13
2018-08-04T12:52:36.087Z,101192.81
2018-08-04T12:55:04.720Z,101187.59
2018-08-04T12:57:35.500Z,101174.90
2018-08-04T13:00:05.787Z,101182.34
2018-08-04T13:02:34.328Z,101186.88
2018-08-04T13:05:02.804Z,101180.30
2018-08-04T13:07:31.498Z,101184.06
2018-08-04T13:10:00.019Z,101181.91
2018-08-04T13:12:30.747Z,101184.38
2018-08-04T13:14:59.596Z,101172.53
2018-08-04T13:17:29.335Z,101176.17
2018-08-04T13:19:58.172Z,101170.55
2018-08-04T13:22:27.597Z,101175.70
2018-08-04T13:24:56.313Z,101167.30
2018-08-04T13:27:25.219Z,101165.26
2018-08-04T13:29:53.896Z,101159.42
2018-08-04T13:32:22.480Z,101165.47
2018-08-04T13:34:50.929Z,101159.66
2018-08-04T13:37:19.463Z,101157.52
2018-08-04T13:39:48.054Z,101158.95
2018-08-04T13:42:16.559Z,101163.33
2018-08-04T13:44:45.089Z,101165.12
2018-08-04T13:47:13.588Z,101161.52
2018-08-04T13:49:42.309Z,101170.32
2018-08-04T13:52:11.780Z,101164.78
2018-08-04T13:54:40.485Z,101168.30
2018-08-04T13:57:11.628Z,101162.56
2018-08-04T13:59:41.206Z,101167.01
2018-08-04T14:02:10.529Z,101165.59
2018-08-04T14:04:39.300Z,101156.14
2018-08-04T14:07:07.950Z,101155.22
2018-08-04T14:09:39.567Z,101162.15
2018-08-04T14:12:09.622Z,101157.69
2018-08-04T14:14:38.920Z,101153.56
2018-08-04T14:17:07.818Z,101161.27
2018-08-04T14:19:38.572Z,101162.41
2018-08-04T14:22:07.249Z,101156.27
2018-08-04T14:24:36.054Z,101157.27
2018-08-04T14:27:05.959Z,101159.33
2018-08-04T14:29:34.629Z,101160.91
2018-08-04T14:32:03.755Z,101150.09
2018-08-04T14:34:32.308Z,101150.11
2018-08-04T14:37:02.568Z,101151.25
2018-08-04T14:39:31.954Z,101138.56
2018-08-04T14:42:00.997Z,101138.75
2018-08-04T14:44:29.511Z,101146.37
2018-08-04T14:46:58.805Z,101136.16
2018-08-04T14:49:28.308Z,101143.23
2018-08-04T14:51:57.405Z,101138.87
2018-08-04T14:54:27.245Z,101141.82
2018-08-04T14:56:57.280Z,101132.47
2018-08-04T14:59:27.520Z,101136.13
2018-08-04T15:01:56.032Z,101140.66
2018-08-04T15:04:24.755Z,101143.72
2018-08-04T15:06:53.485Z,101136.29
2018-08-04T15:09:21.988Z,101133.50
2018-08-04T15:11:51.396Z,101131.86
2018-08-04T15:14:22.035Z,101129.11
2018-08-04T15:16:50.509Z,101133.25
2018-08-04T15:19:20.685Z,101121.86
2018-08-04T15:21:51.567Z,101120.23
2018-08-04T15:24:20.864Z,101126.83
2018-08-04T15:26:52.578Z,101122.97
2018-08-04T15:29:24.624Z,101124.41
2018-08-04T15:31:56.625Z,101124.86
2018-08-04T15:34:25.649Z,101126.88
2018-08-04T15:36:56.155Z,101111.74
2018-08-04T15:39:25.294Z,101122.77
2018-08-04T15:41:54.351Z,101111.90
2018-08-04T15:44:24.620Z,101116.66
2018-08-04T15:46:54.843Z,101117.23
2018-08-04T15:49:25.596Z,101111.42
2018-08-04T15:51:58.596Z,101106.20
2018-08-04T15:54:28.703Z,101120.37
2018-08-04T15:56:59.065Z,101117.78
2018-08-04T15:59:30.026Z,101121.75
2018-08-04T16:01:58.596Z,101117.48
2018-08-04T16:04:28.173Z,101112.73
2018-08-04T16:07:04.435Z,101116.63
2018-08-04T16:09:34.737Z,101118.57
2018-08-04T16:12:05.929Z,101113.34
2018-08-04T16:14:35.225Z,101110.56
2018-08-04T16:17:05.168Z,101109.18
2018-08-04T16:19:34.098Z,101121.16
2018-08-04T16:22:04.863Z,101110.32
2018-08-04T16:24:34.774Z,101116.98
2018-08-04T16:27:03.489Z,101115.42
2018-08-04T16:29:33.229Z,101114.64
2018-08-04T16:32:04.746Z,101111.23
2018-08-04T16:34:33.941Z,101113.08
2018-08-04T16:37:03.177Z,101112.88
2018-08-04T16:39:33.252Z,101112.57
2018-08-04T16:42:03.529Z,101111.96
2018-08-04T16:44:33.018Z,101119.77
2018-08-04T16:47:01.670Z,101118.69
2018-08-04T16:49:32.624Z,101123.05
2018-08-04T16:52:02.237Z,101119.40
2018-08-04T16:54:30.847Z,101120.97
2018-08-04T16:57:00.035Z,101122.63
2018-08-04T16:59:28.591Z,101122.05
2018-08-04T17:01:57.064Z,101113.22
2018-08-04T17:04:26.060Z,101110.41
2018-08-04T17:06:54.684Z,101109.83
2018-08-04T17:09:24.267Z,101113.95
2018-08-04T17:11:52.928Z,101109.17
2018-08-04T17:14:23.783Z,101115.68
2018-08-04T17:16:54.053Z,101120.04
2018-08-04T17:19:23.437Z,101117.38
2018-08-04T17:21:52.320Z,101120.14
2018-08-04T17:24:22.456Z,101120.41
2018-08-04T17:26:51.311Z,101119.38
2018-08-04T17:29:21.968Z,101121.08
2018-08-04T17:31:51.138Z,101128.56
2018-08-04T17:34:19.827Z,101136.94
2018-08-04T17:36:48.522Z,101140.58
2018-08-04T17:39:20.428Z,101140.94
2018-08-04T17:41:51.037Z,101142.61
2018-08-04T17:44:22.621Z,101149.27
2018-08-04T17:46:51.840Z,101148.42
2018-08-04T17:49:20.546Z,101157.84
2018-08-04T17:51:49.684Z,101147.00
2018-08-04T17:54:21.308Z,101160.86
2018-08-04T17:56:50.489Z,101154.42
2018-08-04T17:59:20.620Z,101166.59
2018-08-04T18:01:50.043Z,101177.31
2018-08-04T18:04:18.895Z,101177.66
2018-08-04T18:06:48.804Z,101178.48
2018-08-04T18:09:17.645Z,101183.03
2018-08-04T18:11:46.137Z,101177.02
2018-08-04T18:14:14.732Z,101187.12
2018-08-04T18:16:43.639Z,101177.36
2018-08-04T18:19:13.123Z,101177.56
2018-08-04T18:21:43.088Z,101184.02
2018-08-04T18:24:11.596Z,101186.75
2018-08-04T18:26:40.339Z,101193.70
2018-08-04T18:29:11.869Z,101199.33
2018-08-04T18:31:41.185Z,101188.30
2018-08-04T18:34:09.859Z,101192.13
2018-08-04T18:36:38.548Z,101192.73
2018-08-04T18:39:08.461Z,101195.45
2018-08-04T18:41:37.006Z,101192.55
2018-08-04T18:44:05.625Z,101193.85
2018-08-04T18:46:34.635Z,101204.61
2018-08-04T18:49:03.277Z,101204.83
2018-08-04T18:51:32.049Z,101208.42
2018-08-04T18:54:01.445Z,101210.06
2018-08-04T18:56:29.983Z,101205.91
2018-08-04T18:58:59.287Z,101213.97
2018-08-04T19:01:27.866Z,101214.47
2018-08-04T19:03:56.723Z,101206.22
2018-08-04T19:06:25.234Z,101216.94
2018-08-04T19:08:54.365Z,101213.30
2018-08-04T19:11:23.286Z,101217.69
2018-08-04T19:13:52.432Z,101216.83
2018-08-04T19:16:21.204Z,101213.36
2018-08-04T19:18:49.976Z,101214.57
2018-08-04T19:21:18.975Z,101223.58
2018-08-04T19:23:47.565Z,101229.80
2018-08-04T19:26:16.238Z,101231.34
2018-08-04T19:28:45.263Z,101233.22
2018-08-04T19:31:13.745Z,101235.78
2018-08-04T19:33:43.418Z,101243.45
2018-08-04T19:36:12.122Z,101246.61
2018-08-04T19:38:40.631Z,101244.78
2018-08-04T19:41:09.225Z,101256.50
2018-08-04T19:43:38.301Z,101265.14
2018-08-04T19:46:07.499Z,101271.95
2018-08-04T19:48:36.197Z,101271.39
2018-08-04T19:51:04.728Z,101274.27
2018-08-04T19:53:33.592Z,101277.03
2018-08-04T19:56:02.179Z,101272.14
2018-08-04T19:58:32.290Z,101269.80
2018-08-04T20:01:00.795Z,101282.25
2018-08-04T20:03:30.136Z,101291.31
2018-08-04T20:06:01.174Z,101287.75
2018-08-04T20:08:31.394Z,101293.03
2018-08-04T20:11:02.922Z,101303.92
2018-08-04T20:13:31.777Z,101300.82
2018-08-04T20:16:01.215Z,101301.95
2018-08-04T20:18:29.746Z,101296.59
2018-08-04T20:20:58.346Z,101303.19
2018-08-04T20:23:26.912Z,101298.97
2018-08-04T20:25:55.468Z,101298.66
2018-08-04T20:28:24.167Z,101300.38
2018-08-04T20:30:52.678Z,101302.27
2018-08-04T20:33:21.334Z,101309.33
2018-08-04T20:35:50.904Z,101311.66
2018-08-04T20:38:20.297Z,101306.77
2018-08-04T20:40:48.909Z,101316.59
2018-08-04T20:43:18.080Z,101311.78
2018-08-04T20:45:47.520Z,101310.45
2018-08-04T20:48:16.750Z,101307.77
2018-08-04T20:50:45.740Z,101313.74
2018-08-04T20:53:14.492Z,101314.70
2018-08-04T20:55:43.138Z,101318.30
2018-08-04T20:58:12.563Z,101320.17
2018-08-04T21:00:43.117Z,101327.97
2018-08-04T21:03:12.796Z,101323.14
2018-08-04T21:05:42.109Z,101325.30
2018-08-04T21:08:10.897Z,101333.95
2018-08-04T21:10:39.585Z,101321.80
2018-08-04T21:13:09.385Z,101340.47
2018-08-04T21:15:38.953Z,101335.52
2018-08-04T21:18:08.116Z,101338.02
2018-08-04T21:20:37.387Z,101338.66
2018-08-04T21:23:06.402Z,101338.34
2018-08-04T21:25:36.949Z,101342.42
2018-08-04T21:28:06.017Z,101338.30
2018-08-04T21:30:35.049Z,101337.72
2018-08-04T21:33:03.690Z,101339.52
2018-08-04T21:35:32.453Z,101350.73
2018-08-04T21:38:01.168Z,101345.92
2018-08-04T21:40:30.460Z,101357.77
2018-08-04T21:42:59.065Z,101349.69
2018-08-04T21:45:27.516Z,101353.64
2018-08-04T21:47:56.558Z,101353.36
2018-08-04T21:50:25.946Z,101364.84
2018-08-04T21:52:54.809Z,101368.72
2018-08-04T21:55:23.411Z,101365.92
2018-08-04T21:57:52.777Z,101371.52
2018-08-04T22:00:21.321Z,101365.70
2018-08-04T22:03:03.642Z,101369.48
2018-08-04T22:05:32.220Z,101372.05
2018-08-04T22:08:12.919Z,101383.03
2018-08-04T22:10:42.531Z,101373.88
2018-08-04T22:13:12.117Z,101381.85
2018-08-04T22:15:44.684Z,101381.30
2018-08-04T22:18:13.956Z,101376.61
2018-08-04T22:20:45.070Z,101382.23
2018-08-04T22:23:15.510Z,101386.33
2018-08-04T22:25:44.185Z,101387.88
2018-08-04T22:28:13.794Z,101389.54
2018-08-04T22:30:44.908Z,101387.89
2018-08-04T22:33:13.457Z,101394.03
2018-08-04T22:35:43.610Z,101394.06
2018-08-04T22:38:12.089Z,101389.04
2018-08-04T22:40:40.616Z,101394.54
2018-08-04T22:43:09.463Z,101396.05
2018-08-04T22:46:14.346Z,101391.64
2018-08-04T22:48:44.361Z,101390.83
2018-08-04T22:51:12.898Z,101394.45
2018-08-04T22:53:41.880Z,101389.91
2018-08-04T22:56:10.587Z,101391.31
2018-08-04T22:58:39.670Z,101398.08
2018-08-04T23:01:08.273Z,101399.14
2018-08-04T23:03:38.560Z,101391.96
2018-08-04T23:06:07.260Z,101405.15
2018-08-04T23:08:35.678Z,101404.48
2018-08-04T23:11:04.245Z,101404.58
2018-08-04T23:13:33.924Z,101401.78
2018-08-04T23:16:02.799Z,101405.00
2018-08-04T23:18:31.406Z,101410.56
2018-08-04T23:20:59.880Z,101415.24
2018-08-04T23:23:28.391Z,101416.32
2018-08-04T23:25:57.227Z,101413.30
2018-08-04T23:28:26.324Z,101415.84
2018-08-04T23:30:56.386Z,101407.42
2018-08-04T23:33:25.893Z,101414.86
2018-08-04T23:35:55.033Z,101422.02
2018-08-04T23:38:24.022Z,101428.84
2018-08-04T23:40:52.512Z,101428.62
2018-08-04T23:43:21.847Z,101435.82
2018-08-04T23:45:50.987Z,101433.16
2018-08-04T23:48:19.934Z,101436.94
2018-08-04T23:50:51.653Z,101434.98
2018-08-04T23:53:21.147Z,101433.06
2018-08-04T23:55:52.414Z,101431.49
2018-08-04T23:58:21.605Z,101435.91
